Flinterbirka — PHFQ — position and weather

sailwx.info

Track history (hours):
 
Tides and Currents Weather Stations Pressure Air Temp Water Temp Dewpoint Dewpoint Depression Visibility Wind Speed Wind Dir Waves Ship Positions

Flinterbirka

Last reported at 2016-May-25 06:26 UTC. Time now 2016-May-25 07:16 UTC.
Position N 54°37' W 005°55'.

Length 81 m; draft 5.6 m.

Type: Cargo ship. MMSI: 246525000.

Date/timePositionNaut miles runAvg speedWind from/ knotsBaromVisibWave heightAir tempDewpointWater temp
2016-May-25 06:26N 54°37' W 005°55'0 0.0
2016-May-25 05:34N 54°37' W 005°55'0 0.0
2016-May-25 04:33N 54°37' W 005°55'0 0.0
2016-May-25 03:29N 54°37' W 005°55'0 0.0
2016-May-24 22:23N 54°37' W 005°55'0 0.0
2016-May-24 20:32N 54°37' W 005°55'0 0.0
2016-May-24 19:33N 54°37' W 005°55'0 0.0
2016-May-24 18:30N 54°37' W 005°55'0 0.0
2016-May-24 17:34N 54°37' W 005°55'0 0.0
2016-May-24 16:33N 54°37' W 005°55'0 0.0
2016-May-24 15:33N 54°37' W 005°55'0 0.0
2016-May-24 13:30N 54°37' W 005°55'0 0.0
2016-May-24 12:33N 54°37' W 005°55'0 0.0
2016-May-24 11:32N 54°37' W 005°55'0 0.0
2016-May-24 10:32N 54°37' W 005°55'0 0.0
2016-May-24 09:32N 54°37' W 005°55'0 0.0
2016-May-24 08:33N 54°37' W 005°55'0 0.0
2016-May-24 07:13N 54°37' W 005°55'0 0.0
2016-May-24 06:23N 54°37' W 005°55'0 0.0
2016-May-24 05:32N 54°37' W 005°55'0 0.0
2016-May-24 04:33N 54°37' W 005°55'0 0.0
2016-May-24 03:32N 54°37' W 005°55'0 0.0
2016-May-24 02:33N 54°37' W 005°55'0 0.0
2016-May-24 01:31N 54°37' W 005°55'0 0.0
2016-May-24 00:32N 54°37' W 005°55'0 0.0
2016-May-23 23:31N 54°37' W 005°55'0 0.0
2016-May-23 22:33N 54°37' W 005°55'0 0.0
2016-May-23 20:33N 54°37' W 005°55'0 0.0
2016-May-23 19:33N 54°37' W 005°55'0 0.0
2016-May-23 18:28N 54°37' W 005°55'0 0.0
2016-May-23 17:28N 54°37' W 005°55'0 0.0
2016-May-23 16:25N 54°37' W 005°55'0 0.0
2016-May-23 15:30N 54°37' W 005°55'0 0.0
2016-May-23 08:29N 54°37' W 005°55'0 0.0
2016-May-23 07:32N 54°37' W 005°55'0 0.1
2016-May-23 06:33N 54°37' W 005°54'0 0.0
2016-May-23 03:21N 54°37' W 005°54'0 0.0
2016-May-22 13:27N 54°37' W 005°54'0 0.0
2016-May-22 12:19N 54°37' W 005°54'0 0.0
2016-May-22 07:10N 54°37' W 005°54'0 0.0
2016-May-22 06:27N 54°37' W 005°54'0 0.0
2016-May-22 05:23N 54°37' W 005°54'0 0.0
2016-May-22 04:28N 54°37' W 005°54'0 0.0
2016-May-21 20:15N 54°37' W 005°54'0 0.0
2016-May-21 19:31N 54°37' W 005°54'0 0.0
2016-May-21 17:25N 54°37' W 005°54'0 0.0
2016-May-21 16:23N 54°37' W 005°54'0 0.0
2016-May-21 15:21N 54°37' W 005°54'0 0.0
2016-May-20 19:16N 54°37' W 005°54'0 0.0
2016-May-20 18:25N 54°37' W 005°54'0 0.0
2016-May-20 17:30N 54°37' W 005°54'0 0.0
2016-May-20 16:33N 54°37' W 005°54'0 0.0
2016-May-20 15:29N 54°37' W 005°54'0 0.1
2016-May-20 14:32N 54°37' W 005°55'5 4.7
2016-May-20 13:33N 54°41' W 005°49'8 8.1
2016-May-20 12:33N 54°46' W 005°40'28 9.3
2016-May-20 09:33N 55°13' W 005°58'1211.8
2016-May-20 08:33N 55°22' W 006°11'1110.9
2016-May-20 07:33N 55°29' W 006°24'1111.1
2016-May-20 06:33N 55°39' W 006°35'1110.7
2016-May-20 05:33N 55°49' W 006°38'192 6.8
2016-May-19 01:33N 58°41' W 004°03'10 9.8
2016-May-19 00:33N 58°42' W 003°44'1110.9
2016-May-18 23:33N 58°43' W 003°23'1211.7
2016-May-18 22:33N 58°43' W 003°00'9 9.4
2016-May-18 21:33N 58°42' W 002°42'222 9.1
2016-May-17 21:16N 57°60' E 004°12'88 9.1
2016-May-17 11:32N 57°39' E 006°54'88 8.1
2016-May-17 00:33N 57°44' E 009°39'9 8.7
2016-May-16 23:33N 57°45' E 009°55'8 8.4
2016-May-16 22:33N 57°46' E 010°11'8 8.3
2016-May-16 21:34N 57°48' E 010°26'9 8.8
2016-May-16 20:33N 57°48' E 010°42'6 6.5
2016-May-16 19:33N 57°42' E 010°39'2 1.8
2016-May-16 18:32N 57°41' E 010°36'0 0.0
2016-May-16 17:32N 57°41' E 010°36'0 0.0
2016-May-16 16:31N 57°41' E 010°36'1 1.5
2016-May-16 15:32N 57°41' E 010°38'9 9.4
2016-May-16 14:33N 57°37' E 010°54'9 9.1
2016-May-16 13:34N 57°33' E 011°09'8 8.4
2016-May-16 12:34N 57°29' E 011°23'7 7.5
2016-May-16 11:34N 57°23' E 011°30'8 8.2
2016-May-16 10:34N 57°15' E 011°35'18 8.9
2016-May-16 08:33N 56°58' E 011°48'9 9.3
2016-May-16 07:33N 56°50' E 011°55'9 9.1
2016-May-16 06:33N 56°42' E 012°02'9 9.4
2016-May-16 05:33N 56°33' E 012°10'18 8.9
2016-May-16 03:33N 56°17' E 012°23'8 8.4
2016-May-16 02:34N 56°10' E 012°30'8 7.6
2016-May-16 01:34N 56°04' E 012°38'8 7.9
2016-May-16 00:33N 55°56' E 012°44'9 9.4
2016-May-15 23:34N 55°47' E 012°42'9 9.0
2016-May-15 22:33N 55°38' E 012°42'9 8.5
2016-May-15 21:33N 55°30' E 012°42'9 9.2
2016-May-15 20:33N 55°21' E 012°41'9 8.6
2016-May-15 19:33N 55°16' E 012°54'10 9.9
2016-May-15 18:34N 55°16' E 013°11'2010.0
2016-May-15 16:33N 55°15' E 013°46'1010.2
2016-May-15 15:33N 55°14' E 014°04'9 9.4
2016-May-15 14:33N 55°16' E 014°20'1010.3
2016-May-15 13:33N 55°24' E 014°32'10 9.8
2016-May-15 12:34N 55°30' E 014°46'10 9.7
2016-May-15 11:33N 55°35' E 015°00'  
Track history (hours):
 
Tides and Currents Weather Stations Pressure Air Temp Water Temp Dewpoint Dewpoint Depression Visibility Wind Speed Wind Dir Waves Ship Positions

Flinterbirka

Last reported at 2016-May-25 06:26 UTC. Time now 2016-May-25 07:16 UTC.
Position N 54°37' W 005°55'.

Length 81 m; draft 5.6 m.

Type: Cargo ship. MMSI: 246525000.

Date/timePositionNaut miles runAvg speedWind from/ knotsBaromVisibWave heightAir tempDewpointWater temp
2016-May-25 06:26N 54°37' W 005°55'0 0.0
2016-May-25 05:34N 54°37' W 005°55'0 0.0
2016-May-25 04:33N 54°37' W 005°55'0 0.0
2016-May-25 03:29N 54°37' W 005°55'0 0.0
2016-May-24 22:23N 54°37' W 005°55'0 0.0
2016-May-24 20:32N 54°37' W 005°55'0 0.0
2016-May-24 19:33N 54°37' W 005°55'0 0.0
2016-May-24 18:30N 54°37' W 005°55'0 0.0
2016-May-24 17:34N 54°37' W 005°55'0 0.0
2016-May-24 16:33N 54°37' W 005°55'0 0.0
2016-May-24 15:33N 54°37' W 005°55'0 0.0
2016-May-24 13:30N 54°37' W 005°55'0 0.0
2016-May-24 12:33N 54°37' W 005°55'0 0.0
2016-May-24 11:32N 54°37' W 005°55'0 0.0
2016-May-24 10:32N 54°37' W 005°55'0 0.0
2016-May-24 09:32N 54°37' W 005°55'0 0.0
2016-May-24 08:33N 54°37' W 005°55'0 0.0
2016-May-24 07:13N 54°37' W 005°55'0 0.0
2016-May-24 06:23N 54°37' W 005°55'0 0.0
2016-May-24 05:32N 54°37' W 005°55'0 0.0
2016-May-24 04:33N 54°37' W 005°55'0 0.0
2016-May-24 03:32N 54°37' W 005°55'0 0.0
2016-May-24 02:33N 54°37' W 005°55'0 0.0
2016-May-24 01:31N 54°37' W 005°55'0 0.0
2016-May-24 00:32N 54°37' W 005°55'0 0.0
2016-May-23 23:31N 54°37' W 005°55'0 0.0
2016-May-23 22:33N 54°37' W 005°55'0 0.0
2016-May-23 20:33N 54°37' W 005°55'0 0.0
2016-May-23 19:33N 54°37' W 005°55'0 0.0
2016-May-23 18:28N 54°37' W 005°55'0 0.0
2016-May-23 17:28N 54°37' W 005°55'0 0.0
2016-May-23 16:25N 54°37' W 005°55'0 0.0
2016-May-23 15:30N 54°37' W 005°55'0 0.0
2016-May-23 08:29N 54°37' W 005°55'0 0.0
2016-May-23 07:32N 54°37' W 005°55'0 0.1
2016-May-23 06:33N 54°37' W 005°54'0 0.0
2016-May-23 03:21N 54°37' W 005°54'0 0.0
2016-May-22 13:27N 54°37' W 005°54'0 0.0
2016-May-22 12:19N 54°37' W 005°54'0 0.0
2016-May-22 07:10N 54°37' W 005°54'0 0.0
2016-May-22 06:27N 54°37' W 005°54'0 0.0
2016-May-22 05:23N 54°37' W 005°54'0 0.0
2016-May-22 04:28N 54°37' W 005°54'0 0.0
2016-May-21 20:15N 54°37' W 005°54'0 0.0
2016-May-21 19:31N 54°37' W 005°54'0 0.0
2016-May-21 17:25N 54°37' W 005°54'0 0.0
2016-May-21 16:23N 54°37' W 005°54'0 0.0
2016-May-21 15:21N 54°37' W 005°54'0 0.0
2016-May-20 19:16N 54°37' W 005°54'0 0.0
2016-May-20 18:25N 54°37' W 005°54'0 0.0
2016-May-20 17:30N 54°37' W 005°54'0 0.0
2016-May-20 16:33N 54°37' W 005°54'0 0.0
2016-May-20 15:29N 54°37' W 005°54'0 0.1
2016-May-20 14:32N 54°37' W 005°55'5 4.7
2016-May-20 13:33N 54°41' W 005°49'8 8.1
2016-May-20 12:33N 54°46' W 005°40'28 9.3
2016-May-20 09:33N 55°13' W 005°58'1211.8
2016-May-20 08:33N 55°22' W 006°11'1110.9
2016-May-20 07:33N 55°29' W 006°24'1111.1
2016-May-20 06:33N 55°39' W 006°35'1110.7
2016-May-20 05:33N 55°49' W 006°38'192 6.8
2016-May-19 01:33N 58°41' W 004°03'10 9.8
2016-May-19 00:33N 58°42' W 003°44'1110.9
2016-May-18 23:33N 58°43' W 003°23'1211.7
2016-May-18 22:33N 58°43' W 003°00'9 9.4
2016-May-18 21:33N 58°42' W 002°42'222 9.1
2016-May-17 21:16N 57°60' E 004°12'88 9.1
2016-May-17 11:32N 57°39' E 006°54'88 8.1
2016-May-17 00:33N 57°44' E 009°39'9 8.7
2016-May-16 23:33N 57°45' E 009°55'8 8.4
2016-May-16 22:33N 57°46' E 010°11'8 8.3
2016-May-16 21:34N 57°48' E 010°26'9 8.8
2016-May-16 20:33N 57°48' E 010°42'6 6.5
2016-May-16 19:33N 57°42' E 010°39'2 1.8
2016-May-16 18:32N 57°41' E 010°36'0 0.0
2016-May-16 17:32N 57°41' E 010°36'0 0.0
2016-May-16 16:31N 57°41' E 010°36'1 1.5
2016-May-16 15:32N 57°41' E 010°38'9 9.4
2016-May-16 14:33N 57°37' E 010°54'9 9.1
2016-May-16 13:34N 57°33' E 011°09'8 8.4
2016-May-16 12:34N 57°29' E 011°23'7 7.5
2016-May-16 11:34N 57°23' E 011°30'8 8.2
2016-May-16 10:34N 57°15' E 011°35'18 8.9
2016-May-16 08:33N 56°58' E 011°48'9 9.3
2016-May-16 07:33N 56°50' E 011°55'9 9.1
2016-May-16 06:33N 56°42' E 012°02'9 9.4
2016-May-16 05:33N 56°33' E 012°10'18 8.9
2016-May-16 03:33N 56°17' E 012°23'8 8.4
2016-May-16 02:34N 56°10' E 012°30'8 7.6
2016-May-16 01:34N 56°04' E 012°38'8 7.9
2016-May-16 00:33N 55°56' E 012°44'9 9.4
2016-May-15 23:34N 55°47' E 012°42'9 9.0
2016-May-15 22:33N 55°38' E 012°42'9 8.5
2016-May-15 21:33N 55°30' E 012°42'9 9.2
2016-May-15 20:33N 55°21' E 012°41'9 8.6
2016-May-15 19:33N 55°16' E 012°54'10 9.9
2016-May-15 18:34N 55°16' E 013°11'2010.0
2016-May-15 16:33N 55°15' E 013°46'1010.2
2016-May-15 15:33N 55°14' E 014°04'9 9.4
2016-May-15 14:33N 55°16' E 014°20'1010.3
2016-May-15 13:33N 55°24' E 014°32'10 9.8
2016-May-15 12:34N 55°30' E 014°46'10 9.7
2016-May-15 11:33N 55°35' E 015°00'  

Dump ship's entire track history